Time;durP1;ratioP1;P1;durP2;ratioP2;P2;SDS_P1;SDS_P2;PMS_P1;PMS_P2;Temp;Humidity;BMP_temperature;BMP_pressure;BME280_temperature;BME280_humidity;BME280_pressure;Samples;Min_cycle;Max_cycle;Signal;HPM_P1;HPM_P2
2021/05/30 00:01:59;;;;;;;4.43;2.63;;;;;;;;;;4974716;28;20046;-69
2021/05/30 00:04:25;;;;;;;4.18;2.85;;;;;;;;;;4974904;28;20465;-69
2021/05/30 00:06:52;;;;;;;4.20;2.85;;;;;;;;;;4974339;28;20097;-69
2021/05/30 00:09:18;;;;;;;3.47;3.00;;;;;;;;;;4973301;28;20166;-69
2021/05/30 00:11:45;;;;;;;4.18;3.33;;;;;;;;;;4974450;28;20078;-69
2021/05/30 00:14:16;;;;;;;3.53;3.05;;;;;;;;;;4974467;28;20066;-69
2021/05/30 00:16:44;;;;;;;4.00;3.00;;;;;;;;;;4974127;28;20097;-69
2021/05/30 00:19:10;;;;;;;3.83;3.20;;;;;;;;;;4974308;28;20418;-69
2021/05/30 00:21:37;;;;;;;3.72;2.85;;;;;;;;;;4974465;28;20090;-69
2021/05/30 00:24:05;;;;;;;4.25;3.30;;;;;;;;;;4974273;28;20580;-69
2021/05/30 00:26:32;;;;;;;3.85;3.08;;;;;;;;;;4973944;28;20138;-69
2021/05/30 00:28:58;;;;;;;4.53;2.70;;;;;;;;;;4974176;28;20078;-69
2021/05/30 00:31:25;;;;;;;3.78;3.08;;;;;;;;;;4974180;28;20086;-69
2021/05/30 00:33:52;;;;;;;4.05;3.00;;;;;;;;;;4974289;28;20416;-69
2021/05/30 00:36:19;;;;;;;3.58;2.95;;;;;;;;;;4973990;28;20421;-69
2021/05/30 00:38:45;;;;;;;3.50;2.83;;;;;;;;;;4973818;28;20551;-69
2021/05/30 00:41:12;;;;;;;3.55;2.97;;;;;;;;;;4974232;28;20125;-69
2021/05/30 00:43:46;;;;;;;4.38;3.17;;;;;;;;;;4973842;28;20089;-69
2021/05/30 00:46:12;;;;;;;4.00;3.17;;;;;;;;;;4973669;28;20138;-69
2021/05/30 00:48:39;;;;;;;4.30;3.63;;;;;;;;;;4973660;28;20057;-69
2021/05/30 00:51:06;;;;;;;4.97;3.10;;;;;;;;;;4973878;28;20047;-69
2021/05/30 00:53:35;;;;;;;5.43;3.33;;;;;;;;;;4973726;28;20057;-69
2021/05/30 00:56:07;;;;;;;5.32;3.70;;;;;;;;;;4972390;28;20097;-69
2021/05/30 00:58:34;;;;;;;3.50;3.00;;;;;;;;;;4973437;28;20057;-69
2021/05/30 01:01:01;;;;;;;3.88;3.45;;;;;;;;;;4973678;28;20082;-69
2021/05/30 01:03:27;;;;;;;5.18;4.35;;;;;;;;;;4973509;28;20498;-69
2021/05/30 01:05:54;;;;;;;4.13;3.45;;;;;;;;;;4973345;28;20055;-69
2021/05/30 01:08:26;;;;;;;4.35;3.80;;;;;;;;;;4973419;28;20113;-69
2021/05/30 01:10:55;;;;;;;6.80;3.85;;;;;;;;;;4973418;28;20053;-69
2021/05/30 01:13:22;;;;;;;7.78;3.90;;;;;;;;;;4973508;28;20449;-69
2021/05/30 01:15:49;;;;;;;3.97;3.30;;;;;;;;;;4973211;28;20133;-69
2021/05/30 01:18:23;;;;;;;5.35;3.58;;;;;;;;;;4972069;28;20441;-69
2021/05/30 01:20:51;;;;;;;5.63;4.15;;;;;;;;;;4972324;28;20090;-69
2021/05/30 01:23:18;;;;;;;4.43;3.85;;;;;;;;;;4988164;28;20097;-69
2021/05/30 01:25:46;;;;;;;4.88;3.97;;;;;;;;;;4972935;28;20129;-69
2021/05/30 01:28:13;;;;;;;5.43;3.85;;;;;;;;;;4973257;28;20082;-69
2021/05/30 01:30:40;;;;;;;6.93;3.33;;;;;;;;;;4973218;28;20186;-69
2021/05/30 01:33:07;;;;;;;4.50;3.60;;;;;;;;;;4973294;28;20093;-69
2021/05/30 01:35:34;;;;;;;4.70;3.50;;;;;;;;;;4972871;28;20090;-69
2021/05/30 01:38:00;;;;;;;5.20;3.50;;;;;;;;;;4972971;28;20487;-69
2021/05/30 01:40:27;;;;;;;5.05;3.85;;;;;;;;;;4972839;28;20138;-69
2021/05/30 01:42:55;;;;;;;5.32;3.97;;;;;;;;;;4973083;28;20085;-69
2021/05/30 01:45:23;;;;;;;5.97;3.88;;;;;;;;;;4973028;28;20078;-69
2021/05/30 01:47:50;;;;;;;3.92;3.17;;;;;;;;;;4972808;28;20090;-69
2021/05/30 01:50:19;;;;;;;3.75;3.42;;;;;;;;;;4972849;28;20089;-69
2021/05/30 01:52:46;;;;;;;4.05;3.60;;;;;;;;;;4972755;28;20100;-69
2021/05/30 01:55:23;;;;;;;4.07;3.67;;;;;;;;;;4972947;28;20086;-69
2021/05/30 01:57:51;;;;;;;4.10;3.63;;;;;;;;;;4972870;28;20097;-69
2021/05/30 02:00:18;;;;;;;3.90;3.50;;;;;;;;;;4972866;28;20082;-69
2021/05/30 02:02:45;;;;;;;4.90;3.90;;;;;;;;;;4971600;28;20101;-69
2021/05/30 02:05:12;;;;;;;4.18;3.40;;;;;;;;;;4973076;28;20529;-69
2021/05/30 02:07:39;;;;;;;4.50;3.92;;;;;;;;;;4972587;28;20078;-69
2021/05/30 02:10:07;;;;;;;4.72;3.58;;;;;;;;;;4972778;28;20054;-69
2021/05/30 02:12:34;;;;;;;5.93;4.65;;;;;;;;;;4972563;28;20047;-69
2021/05/30 02:15:01;;;;;;;6.45;3.78;;;;;;;;;;4972860;28;20101;-69
2021/05/30 02:17:28;;;;;;;5.10;4.07;;;;;;;;;;4972316;28;20522;-69
2021/05/30 02:19:56;;;;;;;4.85;4.07;;;;;;;;;;4972647;28;20137;-69
2021/05/30 02:22:22;;;;;;;4.13;3.60;;;;;;;;;;4971449;28;20537;-69
2021/05/30 02:24:49;;;;;;;5.03;3.90;;;;;;;;;;4976175;28;20090;-69
2021/05/30 02:27:15;;;;;;;5.07;4.55;;;;;;;;;;4976290;28;20082;-69
2021/05/30 02:29:43;;;;;;;5.43;4.07;;;;;;;;;;4975011;28;20565;-69
2021/05/30 02:32:12;;;;;;;4.38;3.85;;;;;;;;;;4976395;28;20120;-69
2021/05/30 02:34:41;;;;;;;4.28;3.53;;;;;;;;;;4976190;28;20057;-69
2021/05/30 02:37:15;;;;;;;4.82;3.63;;;;;;;;;;4976035;28;20094;-69
2021/05/30 02:39:42;;;;;;;6.88;4.10;;;;;;;;;;4974935;28;20083;-69
2021/05/30 02:42:09;;;;;;;7.13;4.15;;;;;;;;;;4976262;28;20089;-69
2021/05/30 02:44:36;;;;;;;4.18;3.75;;;;;;;;;;4976121;28;20055;-69
2021/05/30 02:47:03;;;;;;;4.07;3.47;;;;;;;;;;4975813;28;20097;-69
2021/05/30 02:49:30;;;;;;;4.68;3.78;;;;;;;;;;5009539;23;20057;-70
2021/05/30 02:51:56;;;;;;;5.13;4.10;;;;;;;;;;5010765;28;20449;-71
2021/05/30 02:54:23;;;;;;;5.60;3.97;;;;;;;;;;4995412;28;20531;-70
2021/05/30 02:56:49;;;;;;;4.50;3.70;;;;;;;;;;4994120;28;20057;-70
2021/05/30 02:59:16;;;;;;;3.72;3.35;;;;;;;;;;4995335;28;20077;-70
2021/05/30 03:01:42;;;;;;;5.55;4.00;;;;;;;;;;4978069;28;20523;-70
2021/05/30 03:04:09;;;;;;;6.05;4.57;;;;;;;;;;4995444;28;20054;-70
2021/05/30 03:06:35;;;;;;;5.78;4.05;;;;;;;;;;4977732;28;20101;-70
2021/05/30 03:09:03;;;;;;;4.60;3.95;;;;;;;;;;4995306;28;20085;-69
2021/05/30 03:11:29;;;;;;;5.43;4.47;;;;;;;;;;4977796;28;20485;-70
2021/05/30 03:13:57;;;;;;;5.93;4.57;;;;;;;;;;4994081;28;20137;-70
2021/05/30 03:16:24;;;;;;;5.68;4.80;;;;;;;;;;4977772;28;20493;-70
2021/05/30 03:18:51;;;;;;;6.30;4.68;;;;;;;;;;4993642;28;20050;-71
2021/05/30 03:21:17;;;;;;;5.22;4.07;;;;;;;;;;4977782;28;20085;-69
2021/05/30 03:23:44;;;;;;;5.15;4.20;;;;;;;;;;4994955;28;20058;-69
2021/05/30 03:26:11;;;;;;;7.10;4.82;;;;;;;;;;4961640;28;20054;-69
2021/05/30 03:28:37;;;;;;;5.85;4.18;;;;;;;;;;4977427;28;20508;-70
2021/05/30 03:31:04;;;;;;;5.40;4.50;;;;;;;;;;4994072;28;20094;-69
2021/05/30 03:33:31;;;;;;;5.13;4.55;;;;;;;;;;4977649;28;20452;-70
2021/05/30 03:36:01;;;;;;;6.95;4.20;;;;;;;;;;4977394;28;20089;-70
2021/05/30 03:38:30;;;;;;;7.30;4.80;;;;;;;;;;4994331;28;20505;-70
2021/05/30 03:41:02;;;;;;;5.85;4.40;;;;;;;;;;5000856;28;20050;-71
2021/05/30 03:43:29;;;;;;;8.35;4.63;;;;;;;;;;5006403;28;20058;-71
2021/05/30 03:45:56;;;;;;;5.57;4.72;;;;;;;;;;5000287;28;20449;-71
2021/05/30 03:48:23;;;;;;;5.95;5.03;;;;;;;;;;5002103;28;20461;-70
2021/05/30 03:50:50;;;;;;;4.85;4.35;;;;;;;;;;4999732;28;20057;-70
2021/05/30 03:53:17;;;;;;;5.15;4.65;;;;;;;;;;5003235;28;20078;-70
2021/05/30 03:55:44;;;;;;;7.00;4.70;;;;;;;;;;4996575;28;20458;-69
2021/05/30 03:58:11;;;;;;;5.25;4.70;;;;;;;;;;4994160;28;20129;-69
2021/05/30 04:00:38;;;;;;;5.03;4.47;;;;;;;;;;4994170;28;20510;-69
2021/05/30 04:03:05;;;;;;;5.35;4.50;;;;;;;;;;4976904;28;20572;-69
2021/05/30 04:05:32;;;;;;;6.05;4.45;;;;;;;;;;4992711;28;20529;-69
2021/05/30 04:07:59;;;;;;;6.35;4.57;;;;;;;;;;4992978;28;20097;-69
2021/05/30 04:10:25;;;;;;;4.78;4.15;;;;;;;;;;4992604;28;20086;-69
2021/05/30 04:12:52;;;;;;;5.25;4.80;;;;;;;;;;4992804;28;20081;-69
2021/05/30 04:15:19;;;;;;;6.75;4.32;;;;;;;;;;4992721;28;20077;-69
2021/05/30 04:17:45;;;;;;;4.88;3.72;;;;;;;;;;4993737;28;20489;-70
2021/05/30 04:20:15;;;;;;;4.68;4.03;;;;;;;;;;4992598;28;20058;-69
2021/05/30 04:22:42;;;;;;;5.13;3.75;;;;;;;;;;4994172;28;20078;-69
2021/05/30 04:25:10;;;;;;;6.60;3.90;;;;;;;;;;4976819;28;20097;-70
2021/05/30 04:27:39;;;;;;;5.95;4.00;;;;;;;;;;4992599;28;20054;-70
2021/05/30 04:30:09;;;;;;;5.07;3.70;;;;;;;;;;4976489;28;20052;-70
2021/05/30 04:32:35;;;;;;;4.68;4.05;;;;;;;;;;4976418;28;20050;-69
2021/05/30 04:35:03;;;;;;;4.75;4.20;;;;;;;;;;4976294;28;20054;-70
2021/05/30 04:37:30;;;;;;;3.95;3.55;;;;;;;;;;4992611;28;20129;-69
2021/05/30 04:39:56;;;;;;;5.63;3.85;;;;;;;;;;4994152;28;20050;-70
2021/05/30 04:42:23;;;;;;;4.90;4.40;;;;;;;;;;4993413;28;20046;-71
2021/05/30 04:44:49;;;;;;;5.22;4.30;;;;;;;;;;4992700;28;20508;-70
2021/05/30 04:47:16;;;;;;;4.75;3.95;;;;;;;;;;4992966;28;20101;-71
2021/05/30 04:49:43;;;;;;;4.68;4.00;;;;;;;;;;4992189;28;20109;-70
2021/05/30 04:52:10;;;;;;;5.20;4.55;;;;;;;;;;4992373;28;20054;-70
2021/05/30 04:54:37;;;;;;;5.18;4.65;;;;;;;;;;4992337;28;20101;-70
2021/05/30 04:57:04;;;;;;;8.48;4.95;;;;;;;;;;4975957;28;20077;-70
2021/05/30 04:59:31;;;;;;;5.95;4.78;;;;;;;;;;4991701;28;20069;-70
2021/05/30 05:01:58;;;;;;;7.55;4.80;;;;;;;;;;4976030;28;20519;-70
2021/05/30 05:04:24;;;;;;;5.25;4.75;;;;;;;;;;4991994;28;20082;-70
2021/05/30 05:06:51;;;;;;;5.43;4.22;;;;;;;;;;4975549;28;20165;-71
2021/05/30 05:09:18;;;;;;;6.68;3.85;;;;;;;;;;4991641;28;20050;-70
2021/05/30 05:11:44;;;;;;;4.18;3.80;;;;;;;;;;4991612;28;20093;-70
2021/05/30 05:14:11;;;;;;;5.50;3.83;;;;;;;;;;4990738;28;20054;-69
2021/05/30 05:16:37;;;;;;;5.18;4.68;;;;;;;;;;4992853;28;20077;-68
2021/05/30 05:19:04;;;;;;;4.20;3.67;;;;;;;;;;4992679;28;20460;-69
2021/05/30 05:21:31;;;;;;;6.55;3.83;;;;;;;;;;4992846;28;20050;-69
2021/05/30 05:23:58;;;;;;;5.70;4.07;;;;;;;;;;4991589;28;20054;-69
2021/05/30 05:26:24;;;;;;;4.70;4.03;;;;;;;;;;4975374;28;20093;-69
2021/05/30 05:28:52;;;;;;;4.70;3.88;;;;;;;;;;4991512;28;20093;-69
2021/05/30 05:31:18;;;;;;;6.43;4.70;;;;;;;;;;4993071;28;20468;-69
2021/05/30 05:33:45;;;;;;;5.18;4.50;;;;;;;;;;4993032;28;20058;-69
2021/05/30 05:36:12;;;;;;;4.57;4.03;;;;;;;;;;4991517;28;20046;-69
2021/05/30 05:38:38;;;;;;;6.18;4.28;;;;;;;;;;4959688;28;20089;-69
2021/05/30 05:41:05;;;;;;;5.53;4.28;;;;;;;;;;4992579;28;20054;-68
2021/05/30 05:43:32;;;;;;;4.43;3.90;;;;;;;;;;4991541;28;20124;-70
2021/05/30 05:45:58;;;;;;;6.10;4.30;;;;;;;;;;4991564;28;20046;-69
2021/05/30 05:48:25;;;;;;;4.57;3.80;;;;;;;;;;4992419;28;20113;-69
2021/05/30 05:50:57;;;;;;;4.60;3.58;;;;;;;;;;4992682;28;20125;-69
2021/05/30 05:53:23;;;;;;;5.32;4.18;;;;;;;;;;4991374;28;20050;-68
2021/05/30 05:55:50;;;;;;;4.25;3.85;;;;;;;;;;4991555;28;20058;-70
2021/05/30 05:58:18;;;;;;;4.45;4.03;;;;;;;;;;4993947;28;20472;-69
2021/05/30 06:00:45;;;;;;;6.60;4.15;;;;;;;;;;4979451;28;20811;-69
2021/05/30 06:03:11;;;;;;;4.75;3.67;;;;;;;;;;4995566;28;20072;-69
2021/05/30 06:05:38;;;;;;;3.80;3.40;;;;;;;;;;4995129;28;20456;-70
2021/05/30 06:08:05;;;;;;;5.35;4.22;;;;;;;;;;4996371;28;20089;-70
2021/05/30 06:10:31;;;;;;;7.00;3.90;;;;;;;;;;4979291;28;20047;-69
2021/05/30 06:13:09;;;;;;;6.32;3.83;;;;;;;;;;4995136;28;20098;-69
2021/05/30 06:15:35;;;;;;;5.57;3.80;;;;;;;;;;4994935;28;20050;-69
2021/05/30 06:18:04;;;;;;;4.55;3.75;;;;;;;;;;4995156;28;20050;-71
2021/05/30 06:20:32;;;;;;;4.90;4.40;;;;;;;;;;4996106;28;20046;-69
2021/05/30 06:22:58;;;;;;;5.65;4.40;;;;;;;;;;4979187;28;20100;-69
2021/05/30 06:25:28;;;;;;;4.32;3.83;;;;;;;;;;4995787;28;20051;-69
2021/05/30 06:27:56;;;;;;;5.82;4.00;;;;;;;;;;4978737;28;20512;-70
2021/05/30 06:30:24;;;;;;;5.93;4.30;;;;;;;;;;4978927;28;20047;-70
2021/05/30 06:32:50;;;;;;;8.80;6.35;;;;;;;;;;4995101;28;20081;-69
2021/05/30 06:35:17;;;;;;;6.22;5.07;;;;;;;;;;4978591;28;20082;-69
2021/05/30 06:37:44;;;;;;;7.80;5.40;;;;;;;;;;4994662;28;20061;-69
2021/05/30 06:40:11;;;;;;;6.97;4.80;;;;;;;;;;4995914;28;20050;-71
2021/05/30 06:42:38;;;;;;;5.32;4.20;;;;;;;;;;4994543;28;20089;-69
2021/05/30 06:45:05;;;;;;;7.93;5.55;;;;;;;;;;4994620;28;20085;-69
2021/05/30 06:47:32;;;;;;;6.30;4.53;;;;;;;;;;4994414;28;20092;-69
2021/05/30 06:49:58;;;;;;;5.93;4.68;;;;;;;;;;4978391;28;20050;-69
2021/05/30 06:52:25;;;;;;;6.38;4.15;;;;;;;;;;4994360;28;20123;-69
2021/05/30 06:54:51;;;;;;;4.90;4.25;;;;;;;;;;4994439;28;20093;-69
2021/05/30 06:57:18;;;;;;;5.53;4.22;;;;;;;;;;4994296;28;20104;-70
2021/05/30 06:59:47;;;;;;;6.20;4.28;;;;;;;;;;4994046;28;20050;-69
2021/05/30 07:02:15;;;;;;;6.15;3.92;;;;;;;;;;4994295;28;20046;-69
2021/05/30 07:04:42;;;;;;;5.35;3.88;;;;;;;;;;4994268;28;20047;-71
2021/05/30 07:07:08;;;;;;;4.95;3.92;;;;;;;;;;4994093;28;20101;-69
2021/05/30 07:09:35;;;;;;;3.65;3.30;;;;;;;;;;4993589;28;20513;-69
2021/05/30 07:12:04;;;;;;;4.13;3.40;;;;;;;;;;4995131;28;20051;-69
2021/05/30 07:14:31;;;;;;;4.07;3.65;;;;;;;;;;4978117;28;20086;-69
2021/05/30 07:16:58;;;;;;;6.35;3.67;;;;;;;;;;4977792;28;20050;-69
2021/05/30 07:19:25;;;;;;;5.63;3.97;;;;;;;;;;4994732;28;20468;-69
2021/05/30 07:21:51;;;;;;;3.58;3.25;;;;;;;;;;4993893;28;20128;-69
2021/05/30 07:24:18;;;;;;;4.07;3.00;;;;;;;;;;4993977;28;20054;-69
2021/05/30 07:26:45;;;;;;;3.90;3.47;;;;;;;;;;4994964;28;20054;-69
2021/05/30 07:29:13;;;;;;;3.95;2.95;;;;;;;;;;4977667;28;20082;-69
2021/05/30 07:31:40;;;;;;;3.38;3.00;;;;;;;;;;4994632;28;20075;-69
2021/05/30 07:34:07;;;;;;;5.70;3.40;;;;;;;;;;4993610;28;20062;-69
2021/05/30 07:36:33;;;;;;;3.75;3.00;;;;;;;;;;4993216;28;20082;-69
2021/05/30 07:39:00;;;;;;;5.13;3.45;;;;;;;;;;4993046;28;20057;-70
2021/05/30 07:41:27;;;;;;;4.53;2.50;;;;;;;;;;4992990;28;20054;-69
2021/05/30 07:43:53;;;;;;;4.78;2.70;;;;;;;;;;4993304;28;20089;-69
2021/05/30 07:46:20;;;;;;;6.60;2.95;;;;;;;;;;4994412;28;20078;-69
2021/05/30 07:48:48;;;;;;;3.80;2.58;;;;;;;;;;4994108;28;20058;-69
2021/05/30 07:51:14;;;;;;;2.63;2.42;;;;;;;;;;4993262;28;20065;-70
2021/05/30 07:53:41;;;;;;;2.55;2.03;;;;;;;;;;4993123;28;20085;-70
2021/05/30 07:56:08;;;;;;;3.13;2.50;;;;;;;;;;4994260;28;20085;-69
2021/05/30 07:58:35;;;;;;;7.38;3.38;;;;;;;;;;4976845;28;20089;-69
2021/05/30 08:01:02;;;;;;;3.50;2.25;;;;;;;;;;4977135;28;20054;-70
2021/05/30 08:03:29;;;;;;;3.67;2.50;;;;;;;;;;4994059;28;20046;-69
2021/05/30 08:05:56;;;;;;;2.80;2.47;;;;;;;;;;4993872;28;20089;-69
2021/05/30 08:08:22;;;;;;;2.92;2.65;;;;;;;;;;4994008;28;20150;-69
2021/05/30 08:10:49;;;;;;;2.72;2.53;;;;;;;;;;4992991;28;20042;-69
2021/05/30 08:13:16;;;;;;;3.63;2.60;;;;;;;;;;4993086;28;20089;-69
2021/05/30 08:15:42;;;;;;;2.58;2.30;;;;;;;;;;4976685;28;20105;-70
2021/05/30 08:18:09;;;;;;;3.22;2.33;;;;;;;;;;4976474;28;20089;-71
2021/05/30 08:20:36;;;;;;;3.33;2.60;;;;;;;;;;4991773;28;20089;-70
2021/05/30 08:23:03;;;;;;;2.25;2.00;;;;;;;;;;4992772;28;20054;-70
2021/05/30 08:25:30;;;;;;;2.15;1.85;;;;;;;;;;4992432;28;20050;-71
2021/05/30 08:27:56;;;;;;;3.75;2.65;;;;;;;;;;4976691;28;20082;-70
2021/05/30 08:30:23;;;;;;;3.72;2.60;;;;;;;;;;4992409;28;20085;-70
2021/05/30 08:32:53;;;;;;;2.28;2.03;;;;;;;;;;4992614;28;20086;-71
2021/05/30 08:35:20;;;;;;;3.35;2.10;;;;;;;;;;4992370;28;20100;-70
2021/05/30 08:37:46;;;;;;;4.82;2.15;;;;;;;;;;4993442;28;20050;-70
2021/05/30 08:40:15;;;;;;;3.30;2.35;;;;;;;;;;4993523;28;20529;-71
2021/05/30 08:42:44;;;;;;;2.00;1.80;;;;;;;;;;4993037;28;20046;-70
2021/05/30 08:45:12;;;;;;;4.70;2.08;;;;;;;;;;4992137;28;20116;-70
2021/05/30 08:47:39;;;;;;;2.67;2.40;;;;;;;;;;4991842;28;20089;-71
2021/05/30 08:50:06;;;;;;;3.00;1.90;;;;;;;;;;4992399;28;20100;-70
2021/05/30 08:52:36;;;;;;;2.42;2.17;;;;;;;;;;4993291;28;20100;-71
2021/05/30 08:55:04;;;;;;;2.30;1.88;;;;;;;;;;4992079;28;20134;-72
2021/05/30 08:57:31;;;;;;;3.42;2.28;;;;;;;;;;4975735;28;20093;-71
2021/05/30 08:59:58;;;;;;;3.72;2.38;;;;;;;;;;4959880;28;20078;-72
2021/05/30 09:02:25;;;;;;;4.50;3.00;;;;;;;;;;4975853;28;20108;-71
2021/05/30 09:05:01;;;;;;;3.83;2.60;;;;;;;;;;4991720;28;20050;-71
2021/05/30 09:07:38;;;;;;;2.67;2.30;;;;;;;;;;4975761;28;20107;-72
2021/05/30 09:10:06;;;;;;;3.45;2.33;;;;;;;;;;4992844;28;20085;-71
2021/05/30 09:13:03;;;;;;;4.07;2.65;;;;;;;;;;4978139;28;20062;-72
2021/05/30 09:18:22;;;;;;;2.17;1.98;;;;;;;;;;4991593;28;20069;-72
2021/05/30 09:21:08;;;;;;;2.22;2.03;;;;;;;;;;4975308;28;20129;-71
2021/05/30 09:23:41;;;;;;;3.00;2.60;;;;;;;;;;4991428;28;20096;-72
2021/05/30 09:26:21;;;;;;;2.90;2.10;;;;;;;;;;4992389;28;20200;-72
2021/05/30 09:29:05;;;;;;;4.35;2.25;;;;;;;;;;4975498;28;20121;-72
2021/05/30 09:31:33;;;;;;;2.72;1.92;;;;;;;;;;4991406;28;20560;-72
2021/05/30 09:34:00;;;;;;;2.17;1.63;;;;;;;;;;4991705;28;20050;-72
2021/05/30 09:36:27;;;;;;;4.05;2.08;;;;;;;;;;4991242;28;20054;-72
2021/05/30 09:39:04;;;;;;;1.90;1.70;;;;;;;;;;4992476;28;20050;-72
2021/05/30 09:41:31;;;;;;;2.50;2.30;;;;;;;;;;4975397;28;20042;-71
2021/05/30 09:43:57;;;;;;;2.70;1.90;;;;;;;;;;4991342;28;20105;-72
2021/05/30 09:46:32;;;;;;;4.85;2.20;;;;;;;;;;4990990;28;20082;-71
2021/05/30 09:48:59;;;;;;;2.20;2.00;;;;;;;;;;4974838;28;20054;-70
2021/05/30 09:51:34;;;;;;;9.55;2.17;;;;;;;;;;4975183;28;20046;-72
2021/05/30 09:54:13;;;;;;;3.63;2.08;;;;;;;;;;4991149;28;20133;-71
2021/05/30 09:56:52;;;;;;;2.22;2.00;;;;;;;;;;4991979;28;20142;-71
2021/05/30 09:59:20;;;;;;;2.33;1.77;;;;;;;;;;4991215;28;20117;-70
2021/05/30 10:01:47;;;;;;;3.60;1.98;;;;;;;;;;4991191;28;20097;-72
2021/05/30 10:04:14;;;;;;;1.70;1.60;;;;;;;;;;4992439;28;20434;-71
2021/05/30 10:06:41;;;;;;;2.55;2.00;;;;;;;;;;4991015;28;20046;-72
2021/05/30 10:09:09;;;;;;;3.80;2.47;;;;;;;;;;4991182;28;20144;-71
2021/05/30 10:11:37;;;;;;;3.15;1.73;;;;;;;;;;4991217;28;20042;-71
2021/05/30 10:14:04;;;;;;;3.28;2.05;;;;;;;;;;4975092;28;20509;-72
2021/05/30 10:16:31;;;;;;;4.30;2.13;;;;;;;;;;4990536;28;20046;-71
2021/05/30 10:19:03;;;;;;;2.55;2.10;;;;;;;;;;4974835;28;20104;-71
2021/05/30 10:21:30;;;;;;;3.20;2.17;;;;;;;;;;4975415;28;20520;-72
2021/05/30 10:23:58;;;;;;;2.47;1.80;;;;;;;;;;4992008;28;20502;-72
2021/05/30 10:26:25;;;;;;;3.70;1.88;;;;;;;;;;4974838;28;20536;-72
2021/05/30 10:29:08;;;;;;;4.50;1.60;;;;;;;;;;4990726;28;20339;-72
2021/05/30 10:31:37;;;;;;;2.30;1.77;;;;;;;;;;4975991;28;20468;-72
2021/05/30 10:34:12;;;;;;;2.95;1.95;;;;;;;;;;4991129;28;20125;-72
2021/05/30 10:36:54;;;;;;;3.15;2.05;;;;;;;;;;4974629;28;20078;-72
2021/05/30 10:39:31;;;;;;;2.78;1.70;;;;;;;;;;4991800;28;20584;-72
2021/05/30 10:42:22;;;;;;;4.32;1.88;;;;;;;;;;4990620;28;20042;-72
2021/05/30 10:45:08;;;;;;;2.00;1.77;;;;;;;;;;4992981;28;20108;-72
2021/05/30 10:47:41;;;;;;;3.05;1.80;;;;;;;;;;4980356;28;20077;-73
2021/05/30 10:50:10;;;;;;;2.42;1.80;;;;;;;;;;4995500;28;20052;-72
2021/05/30 10:52:49;;;;;;;2.03;1.83;;;;;;;;;;4994637;28;20515;-72
2021/05/30 10:55:21;;;;;;;1.85;1.70;;;;;;;;;;4995370;28;20528;-73
2021/05/30 10:57:49;;;;;;;2.63;1.80;;;;;;;;;;4994162;28;20085;-72
2021/05/30 11:00:17;;;;;;;2.65;1.83;;;;;;;;;;4978689;28;20042;-72
2021/05/30 11:03:06;;;;;;;2.40;1.70;;;;;;;;;;4995279;28;20192;-70
2021/05/30 11:05:55;;;;;;;2.22;1.77;;;;;;;;;;4994905;28;20452;-72
2021/05/30 11:08:31;;;;;;;1.83;1.67;;;;;;;;;;4978412;28;20520;-72
2021/05/30 11:11:25;;;;;;;5.15;2.10;;;;;;;;;;4995357;28;20464;-71
2021/05/30 11:13:58;;;;;;;2.85;2.15;;;;;;;;;;4993846;28;20060;-72
2021/05/30 11:16:25;;;;;;;2.10;1.88;;;;;;;;;;4977473;28;20445;-72
2021/05/30 11:18:59;;;;;;;3.60;2.38;;;;;;;;;;4993592;28;20061;-72
2021/05/30 11:21:46;;;;;;;3.60;2.03;;;;;;;;;;4993741;28;20081;-72
2021/05/30 11:24:16;;;;;;;2.33;2.00;;;;;;;;;;4984453;28;20093;-72
2021/05/30 11:27:05;;;;;;;2.33;1.75;;;;;;;;;;4977464;28;20085;-72
2021/05/30 11:29:32;;;;;;;2.92;1.92;;;;;;;;;;4977724;28;20051;-73
2021/05/30 11:31:59;;;;;;;3.45;2.15;;;;;;;;;;4977726;28;20077;-71
2021/05/30 11:34:31;;;;;;;4.97;3.63;;;;;;;;;;4996170;28;20078;-72
2021/05/30 11:37:07;;;;;;;6.45;3.55;;;;;;;;;;4980665;28;20105;-72
2021/05/30 11:39:41;;;;;;;3.40;2.00;;;;;;;;;;4993408;28;20494;-72
2021/05/30 11:42:08;;;;;;;2.05;1.60;;;;;;;;;;4993305;28;20472;-71
2021/05/30 11:44:35;;;;;;;2.22;1.65;;;;;;;;;;4993204;28;20054;-71
2021/05/30 11:47:05;;;;;;;1.80;1.45;;;;;;;;;;4993276;28;20090;-71
2021/05/30 11:49:32;;;;;;;2.85;1.52;;;;;;;;;;4977016;28;20089;-71
2021/05/30 11:52:17;;;;;;;2.40;1.70;;;;;;;;;;4993288;28;20081;-72
2021/05/30 11:54:47;;;;;;;2.60;1.30;;;;;;;;;;4977269;28;20138;-71
2021/05/30 11:57:15;;;;;;;1.52;1.42;;;;;;;;;;4994178;28;20073;-70
2021/05/30 11:59:58;;;;;;;2.35;1.45;;;;;;;;;;4992825;28;20054;-72
2021/05/30 12:02:28;;;;;;;3.13;2.28;;;;;;;;;;4976842;28;20042;-72
2021/05/30 12:05:11;;;;;;;2.78;1.83;;;;;;;;;;4994036;28;20046;-71
2021/05/30 12:07:38;;;;;;;3.15;1.73;;;;;;;;;;4992624;28;20077;-71
2021/05/30 12:10:23;;;;;;;2.42;1.65;;;;;;;;;;4992922;28;20117;-72
2021/05/30 12:12:49;;;;;;;2.10;1.85;;;;;;;;;;4993972;28;20476;-73
2021/05/30 12:15:18;;;;;;;1.67;1.58;;;;;;;;;;4992804;28;20058;-71
2021/05/30 12:17:51;;;;;;;3.92;1.85;;;;;;;;;;4976407;28;20054;-72
2021/05/30 12:20:26;;;;;;;1.98;1.60;;;;;;;;;;4992479;28;20494;-73
2021/05/30 12:23:05;;;;;;;2.95;1.60;;;;;;;;;;4992663;28;20078;-74
2021/05/30 12:25:32;;;;;;;2.38;1.60;;;;;;;;;;4960404;28;20057;-72
2021/05/30 12:27:58;;;;;;;1.80;1.70;;;;;;;;;;4992612;28;20082;-71
2021/05/30 12:30:25;;;;;;;2.20;1.60;;;;;;;;;;4992641;28;20129;-72
2021/05/30 12:32:52;;;;;;;2.20;1.45;;;;;;;;;;4976412;28;20051;-73
2021/05/30 12:35:43;;;;;;;6.40;2.75;;;;;;;;;;4992217;28;20086;-72
2021/05/30 12:38:11;;;;;;;3.47;1.80;;;;;;;;;;4993721;28;20046;-72
2021/05/30 12:40:39;;;;;;;1.55;1.45;;;;;;;;;;4976105;28;20081;-72
2021/05/30 12:43:05;;;;;;;2.08;1.85;;;;;;;;;;4992207;28;20109;-72
2021/05/30 12:45:32;;;;;;;2.85;1.70;;;;;;;;;;4993001;28;20058;-72
2021/05/30 12:47:59;;;;;;;2.17;1.60;;;;;;;;;;4993255;28;20600;-71
2021/05/30 12:50:25;;;;;;;2.05;1.80;;;;;;;;;;4975827;28;20050;-72
2021/05/30 12:52:54;;;;;;;3.03;1.67;;;;;;;;;;4975726;28;20509;-71
2021/05/30 12:55:22;;;;;;;2.17;1.85;;;;;;;;;;4975950;28;20078;-71
2021/05/30 12:57:56;;;;;;;2.00;1.90;;;;;;;;;;4975898;28;20129;-72
2021/05/30 13:00:30;;;;;;;2.90;1.70;;;;;;;;;;4993483;28;20522;-72
2021/05/30 13:02:59;;;;;;;2.08;1.80;;;;;;;;;;4992073;28;20120;-71
2021/05/30 13:05:31;;;;;;;1.77;1.60;;;;;;;;;;4975736;28;20050;-72
2021/05/30 13:07:58;;;;;;;7.18;1.80;;;;;;;;;;4992786;28;20093;-73
2021/05/30 13:10:25;;;;;;;1.92;1.80;;;;;;;;;;4991819;28;20074;-71
2021/05/30 13:12:51;;;;;;;2.50;1.88;;;;;;;;;;4991715;28;20086;-71
2021/05/30 13:15:19;;;;;;;3.22;1.98;;;;;;;;;;4991710;28;20496;-68
2021/05/30 13:18:06;;;;;;;2.30;1.63;;;;;;;;;;4991506;28;20081;-71
2021/05/30 13:20:40;;;;;;;3.40;2.20;;;;;;;;;;4975796;28;20046;-71
2021/05/30 13:23:14;;;;;;;3.20;2.10;;;;;;;;;;4961581;28;20051;-71
2021/05/30 13:25:43;;;;;;;3.65;1.83;;;;;;;;;;4976228;28;20062;-72
2021/05/30 13:28:21;;;;;;;1.90;1.80;;;;;;;;;;4991505;28;20097;-72
2021/05/30 13:30:55;;;;;;;2.78;2.15;;;;;;;;;;4991408;28;20069;-72
2021/05/30 13:33:47;;;;;;;3.42;1.77;;;;;;;;;;4992716;28;20050;-72
2021/05/30 13:36:15;;;;;;;2.58;2.38;;;;;;;;;;4991139;28;20094;-71
2021/05/30 13:38:42;;;;;;;3.38;1.83;;;;;;;;;;4992377;28;20073;-72
2021/05/30 13:41:24;;;;;;;2.35;2.00;;;;;;;;;;4991408;28;20081;-71
2021/05/30 13:43:51;;;;;;;1.90;1.80;;;;;;;;;;4977306;28;20104;-72
2021/05/30 13:46:18;;;;;;;3.08;1.70;;;;;;;;;;4976901;28;20498;-72
2021/05/30 13:48:45;;;;;;;4.55;1.75;;;;;;;;;;4977171;28;20085;-73
2021/05/30 13:51:13;;;;;;;9.65;2.05;;;;;;;;;;4976703;28;20043;-72
2021/05/30 13:53:41;;;;;;;2.30;1.58;;;;;;;;;;4994300;28;20050;-70
2021/05/30 13:56:08;;;;;;;2.10;1.80;;;;;;;;;;4992639;28;20051;-72
2021/05/30 13:58:35;;;;;;;2.53;1.80;;;;;;;;;;4976368;28;20046;-73
2021/05/30 14:01:03;;;;;;;3.60;1.90;;;;;;;;;;4992743;28;20453;-72
2021/05/30 14:03:29;;;;;;;3.47;1.67;;;;;;;;;;4960347;28;20054;-73
2021/05/30 14:05:56;;;;;;;3.00;1.70;;;;;;;;;;4993874;28;20484;-72
2021/05/30 14:08:22;;;;;;;2.50;1.70;;;;;;;;;;4993725;28;20104;-72
2021/05/30 14:10:49;;;;;;;2.05;1.83;;;;;;;;;;4992137;28;20085;-72
2021/05/30 14:13:15;;;;;;;2.90;1.75;;;;;;;;;;4959203;28;20085;-72
2021/05/30 14:15:42;;;;;;;2.72;1.60;;;;;;;;;;4991851;28;20054;-70
2021/05/30 14:18:09;;;;;;;4.75;1.50;;;;;;;;;;4974897;28;20509;-72
2021/05/30 14:20:35;;;;;;;2.80;1.65;;;;;;;;;;4978110;28;20081;-72
2021/05/30 14:23:03;;;;;;;1.88;1.70;;;;;;;;;;4996411;28;20042;-73
2021/05/30 14:25:30;;;;;;;2.53;2.33;;;;;;;;;;4996172;28;20469;-72
2021/05/30 14:28:01;;;;;;;3.63;1.40;;;;;;;;;;4979717;28;20546;-73
2021/05/30 14:30:31;;;;;;;3.25;1.90;;;;;;;;;;4980897;28;20050;-73
2021/05/30 14:32:58;;;;;;;1.48;1.38;;;;;;;;;;4997120;28;20587;-72
2021/05/30 14:35:25;;;;;;;3.22;1.58;;;;;;;;;;4979798;28;20089;-72
2021/05/30 14:37:54;;;;;;;1.88;1.63;;;;;;;;;;4997370;28;20454;-72
2021/05/30 14:40:22;;;;;;;2.10;1.90;;;;;;;;;;4995873;28;20046;-72
2021/05/30 14:42:49;;;;;;;3.60;1.67;;;;;;;;;;4962417;28;20136;-72
2021/05/30 14:45:15;;;;;;;4.15;1.80;;;;;;;;;;4994568;28;20085;-72
2021/05/30 14:47:42;;;;;;;5.03;1.73;;;;;;;;;;4994149;28;20424;-72
2021/05/30 14:50:09;;;;;;;2.83;1.50;;;;;;;;;;5017951;23;20073;-68
2021/05/30 14:52:36;;;;;;;1.80;1.70;;;;;;;;;;4994386;28;20046;-68
2021/05/30 14:55:04;;;;;;;3.03;1.90;;;;;;;;;;4995548;28;20053;-69
2021/05/30 14:57:30;;;;;;;2.20;1.55;;;;;;;;;;4995127;28;20085;-68